createdAt,value
2023-11-18T00:01:33.981Z,101919.47
2023-11-18T00:04:01.117Z,101930.72
2023-11-18T00:06:27.797Z,101928.94
2023-11-18T00:08:54.163Z,101929.66
2023-11-18T00:11:20.525Z,101933.19
2023-11-18T00:13:47.857Z,101925.53
2023-11-18T00:16:15.097Z,101929.78
2023-11-18T00:18:41.482Z,101926.41
2023-11-18T00:21:08.406Z,101930.66
2023-11-18T00:23:35.694Z,101939.50
2023-11-18T00:26:03.112Z,101932.63
2023-11-18T00:28:29.652Z,101931.03
2023-11-18T00:30:56.516Z,101937.06
2023-11-18T00:33:22.974Z,101932.72
2023-11-18T00:35:49.358Z,101937.91
2023-11-18T00:38:15.758Z,101929.34
2023-11-18T00:40:42.331Z,101933.63
2023-11-18T00:43:09.349Z,101933.63
2023-11-18T00:45:35.732Z,101925.88
2023-11-18T00:48:02.159Z,101921.50
2023-11-18T00:50:28.667Z,101916.22
2023-11-18T00:52:55.152Z,101909.38
2023-11-18T00:55:21.770Z,101905.84
2023-11-18T00:57:48.193Z,101909.31
2023-11-18T01:00:20.091Z,101904.09
2023-11-18T01:02:49.035Z,101905.00
2023-11-18T01:05:16.103Z,101897.16
2023-11-18T01:07:43.990Z,101898.13
2023-11-18T01:10:14.669Z,101892.06
2023-11-18T01:12:41.874Z,101890.22
2023-11-18T01:15:11.477Z,101899.72
2023-11-18T01:17:38.057Z,101893.63
2023-11-18T01:20:10.449Z,101892.88
2023-11-18T01:22:36.868Z,101898.03
2023-11-18T01:25:03.668Z,101901.50
2023-11-18T01:27:30.116Z,101905.91
2023-11-18T01:29:56.609Z,101912.84
2023-11-18T01:32:23.042Z,101905.19
2023-11-18T01:34:51.152Z,101916.53
2023-11-18T01:37:18.343Z,101909.56
2023-11-18T01:39:44.768Z,101909.47
2023-11-18T01:42:12.742Z,101906.97
2023-11-18T01:44:39.143Z,101911.22
2023-11-18T01:47:07.546Z,101914.69
2023-11-18T01:49:40.839Z,101915.63
2023-11-18T01:52:11.387Z,101915.66
2023-11-18T01:54:39.245Z,101922.56
2023-11-18T01:57:07.377Z,101927.13
2023-11-18T01:59:34.897Z,101925.22
2023-11-18T02:02:02.819Z,101920.06
2023-11-18T02:04:29.577Z,101923.50
2023-11-18T02:06:57.129Z,101920.06
2023-11-18T02:09:29.530Z,101914.00
2023-11-18T02:12:01.699Z,101922.69
2023-11-18T02:14:31.134Z,101919.13
2023-11-18T02:17:03.311Z,101917.41
2023-11-18T02:19:31.168Z,101902.66
2023-11-18T02:21:58.039Z,101903.66
2023-11-18T02:24:37.955Z,101899.22
2023-11-18T02:27:06.962Z,101905.28
2023-11-18T02:29:37.097Z,101905.31
2023-11-18T02:32:16.635Z,101905.28
2023-11-18T02:34:52.525Z,101910.66
2023-11-18T02:37:19.464Z,101900.97
2023-11-18T02:39:52.200Z,101910.50
2023-11-18T02:42:19.262Z,101902.66
2023-11-18T02:44:50.997Z,101902.72
2023-11-18T02:47:18.331Z,101908.78
2023-11-18T02:49:44.724Z,101912.28
2023-11-18T02:52:11.229Z,101902.78
2023-11-18T02:54:38.340Z,101907.97
2023-11-18T02:57:04.808Z,101898.31
2023-11-18T02:59:32.008Z,101895.75
2023-11-18T03:01:58.511Z,101891.41
2023-11-18T03:04:24.967Z,101901.84
2023-11-18T03:06:51.663Z,101898.31
2023-11-18T03:09:19.650Z,101898.34
2023-11-18T03:11:46.109Z,101894.94
2023-11-18T03:14:13.434Z,101900.97
2023-11-18T03:16:40.327Z,101914.94
2023-11-18T03:19:07.953Z,101914.00
2023-11-18T03:21:34.372Z,101910.50
2023-11-18T03:24:00.905Z,101910.50
2023-11-18T03:26:27.287Z,101911.31
2023-11-18T03:28:53.824Z,101906.09
2023-11-18T03:31:20.928Z,101897.50
2023-11-18T03:33:47.408Z,101888.75
2023-11-18T03:36:13.824Z,101884.44
2023-11-18T03:38:40.176Z,101883.59
2023-11-18T03:41:06.723Z,101887.03
2023-11-18T03:43:33.154Z,101887.03
2023-11-18T03:46:01.786Z,101880.94
2023-11-18T03:48:28.202Z,101869.78
2023-11-18T03:50:54.954Z,101872.28
2023-11-18T03:53:21.301Z,101865.44
2023-11-18T03:55:47.737Z,101866.19
2023-11-18T03:58:14.160Z,101862.72
2023-11-18T04:00:40.522Z,101861.81
2023-11-18T04:03:08.545Z,101870.53
2023-11-18T04:05:35.797Z,101873.13
2023-11-18T04:08:02.594Z,101885.38
2023-11-18T04:10:28.968Z,101891.38
2023-11-18T04:12:55.335Z,101899.09
2023-11-18T04:15:21.762Z,101907.78
2023-11-18T04:17:48.216Z,101898.31
2023-11-18T04:20:17.106Z,101897.38
2023-11-18T04:22:44.744Z,101890.47
2023-11-18T04:25:12.656Z,101898.28
2023-11-18T04:27:39.774Z,101893.16
2023-11-18T04:30:07.358Z,101891.28
2023-11-18T04:32:34.150Z,101879.19
2023-11-18T04:35:08.251Z,101872.25
2023-11-18T04:37:35.795Z,101867.06
2023-11-18T04:40:03.337Z,101871.25
2023-11-18T04:42:30.740Z,101866.97
2023-11-18T04:44:59.048Z,101860.03
2023-11-18T04:47:26.425Z,101853.13
2023-11-18T04:49:53.302Z,101853.09
2023-11-18T04:52:19.912Z,101858.28
2023-11-18T04:54:48.985Z,101860.09
2023-11-18T04:57:15.848Z,101856.53
2023-11-18T04:59:45.071Z,101842.63
2023-11-18T05:02:11.607Z,101841.81
2023-11-18T05:04:38.207Z,101835.78
2023-11-18T05:07:05.349Z,101832.25
2023-11-18T05:09:32.272Z,101828.72
2023-11-18T05:11:59.698Z,101820.06
2023-11-18T05:14:27.410Z,101823.56
2023-11-18T05:16:54.660Z,101815.75
2023-11-18T05:19:21.452Z,101813.91
2023-11-18T05:21:50.530Z,101803.56
2023-11-18T05:24:17.246Z,101806.16
2023-11-18T05:26:43.697Z,101808.75
2023-11-18T05:29:10.144Z,101796.53
2023-11-18T05:31:38.120Z,101805.22
2023-11-18T05:34:04.601Z,101804.38
2023-11-18T05:36:37.982Z,101802.66
2023-11-18T05:39:05.979Z,101795.72
2023-11-18T05:41:33.042Z,101792.22
2023-11-18T05:43:59.631Z,101798.28
2023-11-18T05:46:29.112Z,101787.00
2023-11-18T05:48:55.828Z,101790.47
2023-11-18T05:51:27.825Z,101784.47
2023-11-18T05:53:54.351Z,101792.25
2023-11-18T05:56:23.392Z,101774.03
2023-11-18T05:58:50.130Z,101769.66
2023-11-18T06:01:19.545Z,101769.69
2023-11-18T06:03:48.105Z,101765.34
2023-11-18T06:06:20.001Z,101748.84
2023-11-18T06:08:48.997Z,101749.69
2023-11-18T06:11:16.832Z,101748.81
2023-11-18T06:13:47.553Z,101760.13
2023-11-18T06:16:21.304Z,101759.28
2023-11-18T06:18:49.373Z,101764.53
2023-11-18T06:21:17.862Z,101773.19
2023-11-18T06:23:44.770Z,101775.78
2023-11-18T06:26:11.587Z,101764.47
2023-11-18T06:28:42.624Z,101754.03
2023-11-18T06:31:13.481Z,101746.28
2023-11-18T06:33:43.900Z,101741.97
2023-11-18T06:36:21.106Z,101742.84
2023-11-18T06:38:50.947Z,101751.50
2023-11-18T06:41:24.734Z,101749.78
2023-11-18T06:43:58.775Z,101738.47
2023-11-18T06:46:26.700Z,101754.97
2023-11-18T06:48:58.453Z,101748.06
2023-11-18T06:51:26.993Z,101742.81
2023-11-18T06:53:56.042Z,101737.63
2023-11-18T06:56:22.873Z,101741.97
2023-11-18T06:58:49.214Z,101741.09
2023-11-18T07:01:16.583Z,101756.78
2023-11-18T07:03:43.899Z,101769.78
2023-11-18T07:06:10.773Z,101775.00
2023-11-18T07:08:38.097Z,101770.66
2023-11-18T07:11:04.852Z,101769.78
2023-11-18T07:13:31.341Z,101766.31
2023-11-18T07:15:58.604Z,101767.19
2023-11-18T07:18:25.215Z,101775.03
2023-11-18T07:20:54.769Z,101769.78
2023-11-18T07:23:21.118Z,101777.63
2023-11-18T07:25:48.028Z,101779.38
2023-11-18T07:28:18.231Z,101782.88
2023-11-18T07:30:48.295Z,101778.50
2023-11-18T07:33:15.849Z,101785.47
2023-11-18T07:35:42.875Z,101788.06
2023-11-18T07:38:10.444Z,101781.97
2023-11-18T07:40:38.651Z,101792.41
2023-11-18T07:43:05.134Z,101786.31
2023-11-18T07:45:39.060Z,101780.22
2023-11-18T07:48:09.756Z,101785.44
2023-11-18T07:50:37.650Z,101778.50
2023-11-18T07:53:05.425Z,101765.44
2023-11-18T07:55:35.146Z,101750.63
2023-11-18T07:58:02.743Z,101754.09
2023-11-18T08:00:31.949Z,101742.78
2023-11-18T08:03:01.067Z,101740.13
2023-11-18T08:05:29.170Z,101728.84
2023-11-18T08:07:55.593Z,101734.91
2023-11-18T08:10:22.985Z,101731.41
2023-11-18T08:12:49.514Z,101727.94
2023-11-18T08:15:16.182Z,101728.81
2023-11-18T08:17:42.599Z,101727.84
2023-11-18T08:20:15.117Z,101729.66
2023-11-18T08:22:45.867Z,101736.59
2023-11-18T08:25:13.830Z,101728.72
2023-11-18T08:27:43.598Z,101730.53
2023-11-18T08:30:14.446Z,101736.59
2023-11-18T08:32:47.379Z,101732.25
2023-11-18T08:35:15.600Z,101732.16
2023-11-18T08:37:46.515Z,101736.53
2023-11-18T08:40:16.659Z,101751.38
2023-11-18T08:42:51.977Z,101753.97
2023-11-18T08:45:20.429Z,101752.19
2023-11-18T08:47:49.744Z,101746.13
2023-11-18T08:50:17.880Z,101753.97
2023-11-18T08:52:48.284Z,101748.63
2023-11-18T08:55:19.601Z,101746.94
2023-11-18T08:57:53.412Z,101754.78
2023-11-18T09:00:40.004Z,101756.53
2023-11-18T09:03:06.576Z,101739.09
2023-11-18T09:05:34.013Z,101742.59
2023-11-18T09:08:03.100Z,101743.47
2023-11-18T09:10:29.699Z,101720.84
2023-11-18T09:12:57.513Z,101740.00
2023-11-18T09:15:25.024Z,101737.34
2023-11-18T09:17:51.534Z,101734.72
2023-11-18T09:20:23.242Z,101739.97
2023-11-18T09:22:50.188Z,101733.88
2023-11-18T09:25:16.856Z,101734.72
2023-11-18T09:27:43.462Z,101730.34
2023-11-18T09:30:14.811Z,101730.34
2023-11-18T09:32:44.356Z,101724.28
2023-11-18T09:35:13.627Z,101724.28
2023-11-18T09:37:43.629Z,101722.53
2023-11-18T09:40:14.809Z,101721.66
2023-11-18T09:42:44.724Z,101718.19
2023-11-18T09:45:21.066Z,101715.53
2023-11-18T09:47:54.566Z,101724.25
2023-11-18T09:50:29.738Z,101722.47
2023-11-18T09:53:06.545Z,101726.81
2023-11-18T09:55:45.762Z,101726.00
2023-11-18T09:58:17.451Z,101724.28
2023-11-18T10:00:44.582Z,101718.94
2023-11-18T10:03:16.760Z,101712.88
2023-11-18T10:05:44.031Z,101713.72
2023-11-18T10:08:10.643Z,101711.06
2023-11-18T10:10:38.137Z,101705.81
2023-11-18T10:13:09.838Z,101697.84
2023-11-18T10:15:36.445Z,101702.19
2023-11-18T10:18:12.600Z,101693.50
2023-11-18T10:20:48.953Z,101696.13
2023-11-18T10:23:20.894Z,101688.16
2023-11-18T10:25:51.644Z,101677.69
2023-11-18T10:28:38.516Z,101679.50
2023-11-18T10:31:06.681Z,101678.56
2023-11-18T10:33:39.462Z,101672.47
2023-11-18T10:36:13.621Z,101672.44
2023-11-18T10:38:50.682Z,101671.59
2023-11-18T10:41:18.051Z,101659.44
2023-11-18T10:43:45.753Z,101651.47
2023-11-18T10:46:14.494Z,101647.13
2023-11-18T10:48:51.391Z,101647.09
2023-11-18T10:51:20.250Z,101646.19
2023-11-18T10:54:04.925Z,101634.94
2023-11-18T10:56:31.616Z,101627.78
2023-11-18T10:58:59.961Z,101618.13
2023-11-18T11:01:34.496Z,101610.34
2023-11-18T11:04:05.358Z,101603.41
2023-11-18T11:06:33.198Z,101589.44
2023-11-18T11:08:59.961Z,101587.75
2023-11-18T11:11:29.796Z,101589.31
2023-11-18T11:13:58.835Z,101586.69
2023-11-18T11:16:36.298Z,101587.59
2023-11-18T11:19:09.559Z,101575.56
2023-11-18T11:21:54.379Z,101575.63
2023-11-18T11:24:43.373Z,101580.78
2023-11-18T11:27:30.257Z,101589.44
2023-11-18T11:30:11.354Z,101576.41
2023-11-18T11:32:52.785Z,101575.53
2023-11-18T11:35:32.042Z,101571.88
2023-11-18T11:38:10.928Z,101571.97
2023-11-18T11:40:38.645Z,101570.19
2023-11-18T11:43:11.666Z,101568.50
2023-11-18T11:45:40.230Z,101552.88
2023-11-18T11:48:20.943Z,101565.69
2023-11-18T11:51:21.537Z,101555.25
2023-11-18T11:53:54.501Z,101540.38
2023-11-18T11:56:25.453Z,101542.84
2023-11-18T11:58:54.702Z,101543.81
2023-11-18T12:01:34.670Z,101551.56
2023-11-18T12:04:07.971Z,101534.16
2023-11-18T12:06:36.734Z,101526.44
2023-11-18T12:09:07.586Z,101532.44
2023-11-18T12:11:42.909Z,101530.88
2023-11-18T12:14:25.104Z,101531.66
2023-11-18T12:17:11.741Z,101518.59
2023-11-18T12:19:49.148Z,101508.31
2023-11-18T12:22:27.782Z,101509.84
2023-11-18T12:25:00.526Z,101489.75
2023-11-18T12:27:44.427Z,101481.06
2023-11-18T12:30:16.906Z,101474.97
2023-11-18T12:33:12.605Z,101474.22
2023-11-18T12:36:03.544Z,101460.91
2023-11-18T12:39:14.607Z,101454.78
2023-11-18T12:41:42.066Z,101451.88
2023-11-18T12:44:24.946Z,101450.28
2023-11-18T12:46:56.593Z,101440.81
2023-11-18T12:49:24.793Z,101435.56
2023-11-18T12:51:53.412Z,101418.06
2023-11-18T12:54:30.073Z,101410.91
2023-11-18T12:56:57.163Z,101410.75
2023-11-18T12:59:24.732Z,101399.13
2023-11-18T13:01:58.222Z,101386.31
2023-11-18T13:04:26.222Z,101385.44
2023-11-18T13:06:54.719Z,101390.41
2023-11-18T13:09:26.635Z,101380.06
2023-11-18T13:11:57.193Z,101382.56
2023-11-18T13:14:36.836Z,101383.59
2023-11-18T13:17:07.006Z,101381.47
2023-11-18T13:19:35.366Z,101383.41
2023-11-18T13:22:08.901Z,101380.66
2023-11-18T13:24:47.461Z,101370.41
2023-11-18T13:27:19.213Z,101365.09
2023-11-18T13:29:52.354Z,101346.72
2023-11-18T13:32:23.919Z,101328.53
2023-11-18T13:34:53.242Z,101332.03
2023-11-18T13:37:23.062Z,101310.91
2023-11-18T13:39:56.472Z,101304.03
2023-11-18T13:42:29.132Z,101287.63
2023-11-18T13:45:09.426Z,101313.00
2023-11-18T13:47:35.912Z,101299.75
2023-11-18T13:50:03.110Z,101284.00
2023-11-18T13:52:31.674Z,101273.53
2023-11-18T13:54:58.278Z,101260.63
2023-11-18T13:57:24.939Z,101258.97
2023-11-18T13:59:51.965Z,101244.66
2023-11-18T14:02:18.809Z,101248.53
2023-11-18T14:04:45.597Z,101247.34
2023-11-18T14:07:16.994Z,101243.97
2023-11-18T14:09:43.897Z,101232.66
2023-11-18T14:12:10.254Z,101233.44
2023-11-18T14:14:37.272Z,101226.59
2023-11-18T14:17:03.862Z,101215.28
2023-11-18T14:19:30.379Z,101205.75
2023-11-18T14:21:57.295Z,101198.66
2023-11-18T14:24:28.758Z,101186.59
2023-11-18T14:26:55.790Z,101171.66
2023-11-18T14:29:22.209Z,101163.78
2023-11-18T14:31:48.836Z,101171.63
2023-11-18T14:34:15.278Z,101161.00
2023-11-18T14:36:42.247Z,101147.13
2023-11-18T14:39:15.436Z,101143.84
2023-11-18T14:41:41.960Z,101155.16
2023-11-18T14:44:10.504Z,101161.50
2023-11-18T14:46:41.432Z,101153.59
2023-11-18T14:49:08.454Z,101135.25
2023-11-18T14:51:35.086Z,101135.38
2023-11-18T14:54:01.475Z,101127.66
2023-11-18T14:56:27.895Z,101119.78
2023-11-18T14:58:54.389Z,101126.88
2023-11-18T15:01:21.050Z,101106.78
2023-11-18T15:03:47.587Z,101092.75
2023-11-18T15:06:14.037Z,101105.78
2023-11-18T15:08:46.501Z,101118.09
2023-11-18T15:11:16.389Z,101109.44
2023-11-18T15:13:43.139Z,101104.44
2023-11-18T15:16:09.758Z,101102.59
2023-11-18T15:18:36.541Z,101099.91
2023-11-18T15:21:03.028Z,101087.81
2023-11-18T15:23:29.436Z,101088.63
2023-11-18T15:25:57.730Z,101073.88
2023-11-18T15:28:24.125Z,101058.16
2023-11-18T15:30:50.565Z,101039.88
2023-11-18T15:33:17.168Z,101031.09
2023-11-18T15:35:43.929Z,101010.19
2023-11-18T15:38:17.644Z,100988.59
2023-11-18T15:40:44.321Z,101004.25
2023-11-18T15:43:13.674Z,100996.34
2023-11-18T15:45:40.508Z,100984.03
2023-11-18T15:48:08.437Z,100986.56
2023-11-18T15:50:38.493Z,100984.09
2023-11-18T15:53:08.404Z,100992.91
2023-11-18T15:55:37.060Z,100985.00
2023-11-18T15:58:04.710Z,100980.78
2023-11-18T16:00:32.551Z,100986.69
2023-11-18T16:03:02.396Z,100970.97
2023-11-18T16:05:34.945Z,100975.13
2023-11-18T16:08:02.784Z,100960.31
2023-11-18T16:10:29.260Z,100956.84
2023-11-18T16:12:57.000Z,100938.91
2023-11-18T16:15:24.636Z,100954.50
2023-11-18T16:17:51.624Z,100951.59
2023-11-18T16:20:19.828Z,100943.09
2023-11-18T16:22:48.940Z,100948.44
2023-11-18T16:25:19.825Z,100944.13
2023-11-18T16:27:46.726Z,100932.75
2023-11-18T16:30:14.597Z,100944.78
2023-11-18T16:32:41.545Z,100935.16
2023-11-18T16:35:12.957Z,100935.16
2023-11-18T16:37:43.059Z,100935.97
2023-11-18T16:40:14.757Z,100943.72
2023-11-18T16:42:42.064Z,100929.66
2023-11-18T16:45:10.109Z,100937.63
2023-11-18T16:47:37.612Z,100936.91
2023-11-18T16:50:08.973Z,100935.03
2023-11-18T16:52:36.379Z,100937.28
2023-11-18T16:55:03.818Z,100919.09
2023-11-18T16:57:30.642Z,100911.25
2023-11-18T16:59:57.289Z,100909.53
2023-11-18T17:02:23.728Z,100914.06
2023-11-18T17:04:50.373Z,100907.97
2023-11-18T17:07:17.751Z,100892.84
2023-11-18T17:09:44.123Z,100906.19
2023-11-18T17:12:10.714Z,100897.22
2023-11-18T17:14:37.179Z,100899.00
2023-11-18T17:17:05.326Z,100899.94
2023-11-18T17:19:31.865Z,100894.47
2023-11-18T17:21:58.260Z,100888.59
2023-11-18T17:24:24.733Z,100878.00
2023-11-18T17:26:52.654Z,100880.53
2023-11-18T17:29:19.079Z,100877.59
2023-11-18T17:31:46.864Z,100884.16
2023-11-18T17:34:13.347Z,100881.22
2023-11-18T17:36:39.721Z,100878.81
2023-11-18T17:39:07.570Z,100884.00
2023-11-18T17:41:34.032Z,100873.31
2023-11-18T17:44:00.481Z,100870.34
2023-11-18T17:46:26.980Z,100866.91
2023-11-18T17:48:53.880Z,100849.53
2023-11-18T17:51:23.057Z,100840.06
2023-11-18T17:53:49.676Z,100844.16
2023-11-18T17:56:16.107Z,100849.56
2023-11-18T17:58:42.876Z,100837.34
2023-11-18T18:01:09.876Z,100838.13
2023-11-18T18:03:36.409Z,100845.06
2023-11-18T18:06:04.566Z,100840.44
2023-11-18T18:08:30.984Z,100846.50
2023-11-18T18:10:57.386Z,100835.06
2023-11-18T18:13:23.803Z,100832.41
2023-11-18T18:15:50.165Z,100853.53
2023-11-18T18:18:16.644Z,100846.31
2023-11-18T18:20:49.104Z,100846.41
2023-11-18T18:23:16.560Z,100840.31
2023-11-18T18:25:43.427Z,100842.00
2023-11-18T18:28:10.162Z,100840.78
2023-11-18T18:30:37.960Z,100854.09
2023-11-18T18:33:05.791Z,100856.25
2023-11-18T18:35:32.489Z,100842.00
2023-11-18T18:37:58.948Z,100848.81
2023-11-18T18:40:25.361Z,100846.94
2023-11-18T18:42:51.791Z,100858.38
2023-11-18T18:45:19.579Z,100865.28
2023-11-18T18:47:46.089Z,100868.00
2023-11-18T18:50:12.675Z,100855.88
2023-11-18T18:52:39.096Z,100852.69
2023-11-18T18:55:07.516Z,100838.19
2023-11-18T18:57:34.818Z,100821.41
2023-11-18T19:00:01.154Z,100820.59
2023-11-18T19:02:27.694Z,100815.25
2023-11-18T19:04:54.108Z,100810.13
2023-11-18T19:07:22.925Z,100800.28
2023-11-18T19:09:50.009Z,100818.19
2023-11-18T19:12:16.496Z,100814.00
2023-11-18T19:14:42.938Z,100818.38
2023-11-18T19:17:09.372Z,100817.09
2023-11-18T19:19:36.597Z,100824.84
2023-11-18T19:22:06.402Z,100822.97
2023-11-18T19:24:33.942Z,100823.63
2023-11-18T19:27:02.028Z,100821.00
2023-11-18T19:29:29.021Z,100828.88
2023-11-18T19:31:55.452Z,100816.38
2023-11-18T19:34:22.604Z,100821.56
2023-11-18T19:36:49.151Z,100820.31
2023-11-18T19:39:15.788Z,100825.75
2023-11-18T19:41:42.570Z,100828.22
2023-11-18T19:44:09.162Z,100820.41
2023-11-18T19:46:35.542Z,100828.28
2023-11-18T19:49:01.978Z,100821.47
2023-11-18T19:51:29.038Z,100814.63
2023-11-18T19:53:55.430Z,100822.66
2023-11-18T19:56:21.802Z,100819.44
2023-11-18T19:58:48.228Z,100814.72
2023-11-18T20:03:44.899Z,100785.50
2023-11-18T20:06:12.308Z,100791.78
2023-11-18T20:08:39.600Z,100786.59
2023-11-18T20:11:08.192Z,100781.22
2023-11-18T20:13:35.014Z,100774.91
2023-11-18T20:16:01.377Z,100784.50
2023-11-18T20:18:27.779Z,100781.06
2023-11-18T20:20:55.509Z,100775.88
2023-11-18T20:23:22.671Z,100780.78
2023-11-18T20:25:49.178Z,100769.38
2023-11-18T20:28:17.002Z,100763.56
2023-11-18T20:30:43.427Z,100766.31
2023-11-18T20:33:11.036Z,100761.97
2023-11-18T20:35:37.691Z,100754.91
2023-11-18T20:38:04.323Z,100745.66
2023-11-18T20:40:31.681Z,100733.50
2023-11-18T20:42:58.097Z,100726.31
2023-11-18T20:45:25.123Z,100737.22
2023-11-18T20:47:52.158Z,100731.28
2023-11-18T20:50:18.655Z,100725.34
2023-11-18T20:52:45.930Z,100729.25
2023-11-18T20:55:13.075Z,100716.63
2023-11-18T20:57:39.943Z,100719.97
2023-11-18T21:00:08.691Z,100719.66
2023-11-18T21:02:35.828Z,100710.91
2023-11-18T21:05:03.621Z,100707.25
2023-11-18T21:07:30.107Z,100705.31
2023-11-18T21:09:57.503Z,100697.72
2023-11-18T21:12:25.108Z,100694.59
2023-11-18T21:14:52.273Z,100700.16
2023-11-18T21:17:21.056Z,100701.41
2023-11-18T21:19:47.673Z,100694.59
2023-11-18T21:22:16.678Z,100682.59
2023-11-18T21:24:43.033Z,100687.41
2023-11-18T21:27:09.469Z,100687.53
2023-11-18T21:29:35.936Z,100677.97
2023-11-18T21:32:03.080Z,100677.81
2023-11-18T21:34:29.628Z,100683.53
2023-11-18T21:36:55.974Z,100672.81
2023-11-18T21:39:22.636Z,100676.50
2023-11-18T21:41:48.995Z,100660.53
2023-11-18T21:44:15.413Z,100654.56
2023-11-18T21:46:41.849Z,100643.22
2023-11-18T21:49:10.592Z,100643.81
2023-11-18T21:51:37.872Z,100656.16
2023-11-18T21:54:05.076Z,100648.06
2023-11-18T21:56:35.271Z,100645.25
2023-11-18T21:59:04.174Z,100643.81
2023-11-18T22:01:31.533Z,100649.13
2023-11-18T22:03:58.080Z,100634.66
2023-11-18T22:06:25.339Z,100636.56
2023-11-18T22:08:52.420Z,100633.88
2023-11-18T22:11:20.258Z,100635.00
2023-11-18T22:13:50.506Z,100626.91
2023-11-18T22:16:16.952Z,100619.66
2023-11-18T22:18:44.692Z,100620.06
2023-11-18T22:21:12.272Z,100612.84
2023-11-18T22:23:39.193Z,100619.81
2023-11-18T22:26:05.960Z,100616.84
2023-11-18T22:28:33.247Z,100630.66
2023-11-18T22:31:00.363Z,100643.81
2023-11-18T22:33:27.111Z,100658.66
2023-11-18T22:35:55.058Z,100657.25
2023-11-18T22:38:22.995Z,100660.06
2023-11-18T22:40:50.383Z,100651.41
2023-11-18T22:43:16.926Z,100655.59
2023-11-18T22:45:43.976Z,100655.19
2023-11-18T22:48:10.519Z,100658.88
2023-11-18T22:50:39.325Z,100655.50
2023-11-18T22:53:09.478Z,100650.97
2023-11-18T22:55:39.260Z,100641.56
2023-11-18T22:58:06.059Z,100629.56
2023-11-18T23:00:35.107Z,100628.19
2023-11-18T23:03:03.083Z,100632.75
2023-11-18T23:05:29.623Z,100629.03
2023-11-18T23:07:59.111Z,100637.94
2023-11-18T23:10:26.039Z,100624.94
2023-11-18T23:12:53.748Z,100616.34
2023-11-18T23:15:22.419Z,100620.66
2023-11-18T23:17:50.447Z,100625.13
2023-11-18T23:20:17.128Z,100617.78
2023-11-18T23:22:43.584Z,100604.41
2023-11-18T23:25:10.082Z,100612.47
2023-11-18T23:27:37.768Z,100604.75
2023-11-18T23:30:07.308Z,100601.78
2023-11-18T23:32:34.080Z,100603.75
2023-11-18T23:35:01.913Z,100602.56
2023-11-18T23:37:28.749Z,100604.63
2023-11-18T23:39:55.306Z,100604.00
2023-11-18T23:42:24.606Z,100612.38
2023-11-18T23:44:52.164Z,100624.56
2023-11-18T23:47:18.544Z,100623.31
2023-11-18T23:49:44.907Z,100617.25
2023-11-18T23:52:11.345Z,100600.69
2023-11-18T23:54:37.742Z,100593.19
2023-11-18T23:57:05.574Z,100583.06
2023-11-18T23:59:32.716Z,100586.16
